createdAt,value
2023-01-18T00:01:06.634Z,10.02
2023-01-18T00:08:39.258Z,10.65
2023-01-18T00:16:19.146Z,10.88
2023-01-18T00:23:51.221Z,11.75
2023-01-18T00:31:23.105Z,9.80
2023-01-18T00:38:54.979Z,10.75
2023-01-18T00:46:29.537Z,8.13
2023-01-18T00:54:01.323Z,11.27
2023-01-18T01:01:33.127Z,8.68
2023-01-18T01:09:04.929Z,9.02
2023-01-18T01:16:55.471Z,8.10
2023-01-18T01:24:46.008Z,6.60
2023-01-18T01:32:17.726Z,9.43
2023-01-18T01:39:49.449Z,11.35
2023-01-18T01:47:30.703Z,8.93
2023-01-18T01:55:11.278Z,7.38
2023-01-18T02:02:44.187Z,7.68
2023-01-18T02:10:16.071Z,7.75
2023-01-18T02:18:26.198Z,6.70
2023-01-18T02:26:41.851Z,8.45
2023-01-18T02:34:33.300Z,6.03
2023-01-18T02:42:33.523Z,5.35
2023-01-18T02:50:05.566Z,7.70
2023-01-18T02:57:37.363Z,7.13
2023-01-18T03:05:10.538Z,6.55
2023-01-18T03:13:24.755Z,5.72
2023-01-18T03:20:56.525Z,6.15
2023-01-18T03:29:03.102Z,4.43
2023-01-18T03:36:41.845Z,6.70
2023-01-18T03:44:23.874Z,5.03
2023-01-18T03:52:17.638Z,4.38
2023-01-18T03:59:49.378Z,4.80
2023-01-18T04:07:21.083Z,5.13
2023-01-18T04:14:52.844Z,4.65
2023-01-18T04:22:24.710Z,4.35
2023-01-18T04:29:58.438Z,4.75
2023-01-18T04:37:30.433Z,4.30
2023-01-18T04:45:02.314Z,6.30
2023-01-18T04:52:34.047Z,6.10
2023-01-18T05:00:08.774Z,5.20
2023-01-18T05:07:40.670Z,5.72
2023-01-18T05:15:12.472Z,4.70
2023-01-18T05:22:44.318Z,8.23
2023-01-18T05:30:16.294Z,5.57
2023-01-18T05:37:48.908Z,8.85
2023-01-18T05:45:20.684Z,9.13
2023-01-18T05:52:52.450Z,11.23
2023-01-18T06:00:24.246Z,15.50
2023-01-18T06:07:55.988Z,14.43
2023-01-18T06:15:27.725Z,13.88
2023-01-18T06:22:59.956Z,10.27
2023-01-18T06:30:32.838Z,5.65
2023-01-18T06:38:04.687Z,8.18
2023-01-18T06:45:36.520Z,6.60
2023-01-18T06:53:08.254Z,9.03
2023-01-18T07:00:40.015Z,12.35
2023-01-18T07:08:12.008Z,9.63
2023-01-18T07:15:43.841Z,6.03
2023-01-18T07:23:15.655Z,6.32
2023-01-18T07:30:47.426Z,5.57
2023-01-18T07:38:20.115Z,7.70
2023-01-18T07:45:54.967Z,6.63
2023-01-18T07:53:27.150Z,9.23
2023-01-18T08:01:07.336Z,4.80
2023-01-18T08:08:39.163Z,4.88
2023-01-18T08:16:11.716Z,6.45
2023-01-18T08:23:43.595Z,7.03
2023-01-18T08:31:20.467Z,9.10
2023-01-18T08:38:57.124Z,6.93
2023-01-18T08:46:28.996Z,9.13
2023-01-18T08:54:01.079Z,4.97
2023-01-18T09:01:33.049Z,3.00
2023-01-18T09:09:05.405Z,5.15
2023-01-18T09:16:37.130Z,3.72
2023-01-18T09:24:08.870Z,5.88
2023-01-18T09:31:40.706Z,7.55
2023-01-18T09:39:12.489Z,2.60
2023-01-18T09:46:44.444Z,3.03
2023-01-18T09:54:29.237Z,5.47
2023-01-18T10:02:15.322Z,3.40
2023-01-18T10:09:53.337Z,7.22
2023-01-18T10:17:33.544Z,3.72
2023-01-18T10:25:35.783Z,4.15
2023-01-18T10:33:27.528Z,5.93
2023-01-18T10:41:01.091Z,8.82
2023-01-18T10:48:33.099Z,13.13
2023-01-18T10:56:17.059Z,11.15
2023-01-18T11:04:06.650Z,14.60
2023-01-18T11:11:56.950Z,10.90
2023-01-18T11:19:28.900Z,11.13
2023-01-18T11:27:03.815Z,12.27
2023-01-18T11:34:38.264Z,11.55
2023-01-18T11:42:17.083Z,13.20
2023-01-18T11:50:10.317Z,11.37
2023-01-18T11:57:49.012Z,10.98
2023-01-18T12:05:54.961Z,9.95
2023-01-18T12:13:59.903Z,7.43
2023-01-18T12:21:53.624Z,9.65
2023-01-18T12:29:40.740Z,11.20
2023-01-18T12:37:39.597Z,6.95
2023-01-18T12:45:32.436Z,11.38
2023-01-18T12:53:11.726Z,7.40
2023-01-18T13:00:48.649Z,7.60
2023-01-18T13:08:39.887Z,7.95
2023-01-18T13:16:35.895Z,9.25
2023-01-18T13:24:59.593Z,6.57
2023-01-18T13:32:37.196Z,8.02
2023-01-18T13:40:22.444Z,8.23
2023-01-18T13:48:06.977Z,8.60
2023-01-18T13:55:54.230Z,5.85
2023-01-18T14:03:29.818Z,9.02
2023-01-18T14:11:06.077Z,188.43
2023-01-18T14:18:38.101Z,276.08
2023-01-18T14:26:15.178Z,252.32
2023-01-18T14:33:46.946Z,233.55
2023-01-18T14:41:18.827Z,201.30
2023-01-18T14:48:56.042Z,183.75
2023-01-18T14:56:41.029Z,171.50
2023-01-18T15:04:25.256Z,158.82
2023-01-18T15:11:59.867Z,135.65
2023-01-18T15:19:44.840Z,124.43
2023-01-18T15:27:19.440Z,130.20
2023-01-18T15:34:52.056Z,103.38
2023-01-18T15:42:31.740Z,99.13
2023-01-18T15:50:06.418Z,87.57
2023-01-18T15:57:39.417Z,78.32
2023-01-18T16:05:22.865Z,71.57
2023-01-18T16:13:33.269Z,69.85
2023-01-18T16:21:12.963Z,59.17
2023-01-18T16:28:44.721Z,57.08
2023-01-18T16:36:18.417Z,52.80
2023-01-18T16:43:50.998Z,48.97
2023-01-18T16:51:24.435Z,44.88
2023-01-18T16:58:56.334Z,44.38
2023-01-18T17:06:29.258Z,40.42
2023-01-18T17:14:01.093Z,41.80
2023-01-18T17:21:32.862Z,40.13
2023-01-18T17:29:05.033Z,36.03
2023-01-18T17:36:36.833Z,36.67
2023-01-18T17:44:09.245Z,34.65
2023-01-18T17:51:41.465Z,31.48
2023-01-18T17:59:13.247Z,36.38
2023-01-18T18:06:53.725Z,27.92
2023-01-18T18:14:26.071Z,24.73
2023-01-18T18:21:58.024Z,31.13
2023-01-18T18:29:29.758Z,29.75
2023-01-18T18:37:03.588Z,25.20
2023-01-18T18:44:35.399Z,26.88
2023-01-18T18:52:07.405Z,25.67
2023-01-18T18:59:39.275Z,24.27
2023-01-18T19:07:11.037Z,25.17
2023-01-18T19:14:42.801Z,23.42
2023-01-18T19:22:14.538Z,22.30
2023-01-18T19:29:46.281Z,21.38
2023-01-18T19:37:18.101Z,20.88
2023-01-18T19:44:51.927Z,25.48
2023-01-18T19:52:24.183Z,20.05
2023-01-18T19:59:57.003Z,20.45
2023-01-18T20:07:28.780Z,21.42
2023-01-18T20:15:00.511Z,24.15
2023-01-18T20:22:32.252Z,21.08
2023-01-18T20:30:05.270Z,18.35
2023-01-18T20:37:37.190Z,14.82
2023-01-18T20:45:09.291Z,18.20
2023-01-18T20:52:41.080Z,17.15
2023-01-18T21:00:13.514Z,16.55
2023-01-18T21:07:45.264Z,17.00
2023-01-18T21:15:17.099Z,16.75
2023-01-18T21:22:48.843Z,17.45
2023-01-18T21:30:20.778Z,15.02
2023-01-18T21:37:52.567Z,15.15
2023-01-18T21:45:42.799Z,17.55
2023-01-18T21:53:33.054Z,13.45
2023-01-18T22:01:13.031Z,13.40
2023-01-18T22:08:44.921Z,11.80
2023-01-18T22:16:16.740Z,12.93
2023-01-18T22:23:49.218Z,13.38
2023-01-18T22:31:21.010Z,12.40
2023-01-18T22:38:53.922Z,11.13
2023-01-18T22:46:25.855Z,13.23
2023-01-18T22:53:57.679Z,13.73
2023-01-18T23:01:31.251Z,12.00
2023-01-18T23:09:03.085Z,10.27
2023-01-18T23:16:53.888Z,11.10
2023-01-18T23:24:25.747Z,8.90
2023-01-18T23:31:58.387Z,8.80
2023-01-18T23:39:49.417Z,14.30
2023-01-18T23:47:39.282Z,10.52
2023-01-18T23:55:11.042Z,10.93
